sensor_id;sensor_type;location;lat;lon;timestamp;P1;durP1;ratioP1;P2;durP2;ratioP2
16792;SDS011;8513;42.662;23.350;2023-03-04T00:02:16;16.90;;;15.17;;
16792;SDS011;8513;42.662;23.350;2023-03-04T00:04:41;17.03;;;15.33;;
16792;SDS011;8513;42.662;23.350;2023-03-04T00:07:07;17.57;;;15.77;;
16792;SDS011;8513;42.662;23.350;2023-03-04T00:09:32;16.87;;;15.27;;
16792;SDS011;8513;42.662;23.350;2023-03-04T00:11:58;17.10;;;15.33;;
16792;SDS011;8513;42.662;23.350;2023-03-04T00:14:23;16.90;;;15.20;;
16792;SDS011;8513;42.662;23.350;2023-03-04T00:16:49;15.87;;;14.27;;
16792;SDS011;8513;42.662;23.350;2023-03-04T00:19:14;16.37;;;14.77;;
16792;SDS011;8513;42.662;23.350;2023-03-04T00:21:39;16.77;;;15.17;;
16792;SDS011;8513;42.662;23.350;2023-03-04T00:24:05;17.30;;;15.60;;
16792;SDS011;8513;42.662;23.350;2023-03-04T00:26:31;15.87;;;14.20;;
16792;SDS011;8513;42.662;23.350;2023-03-04T00:28:56;16.03;;;14.43;;
16792;SDS011;8513;42.662;23.350;2023-03-04T00:31:22;16.13;;;14.53;;
16792;SDS011;8513;42.662;23.350;2023-03-04T00:33:47;15.87;;;14.37;;
16792;SDS011;8513;42.662;23.350;2023-03-04T00:36:13;15.73;;;14.20;;
16792;SDS011;8513;42.662;23.350;2023-03-04T00:38:38;16.80;;;14.33;;
16792;SDS011;8513;42.662;23.350;2023-03-04T00:41:04;15.00;;;13.43;;
16792;SDS011;8513;42.662;23.350;2023-03-04T00:43:29;15.47;;;13.97;;
16792;SDS011;8513;42.662;23.350;2023-03-04T00:45:56;15.83;;;14.13;;
16792;SDS011;8513;42.662;23.350;2023-03-04T00:48:21;15.80;;;14.20;;
16792;SDS011;8513;42.662;23.350;2023-03-04T00:50:47;15.90;;;14.40;;
16792;SDS011;8513;42.662;23.350;2023-03-04T00:53:13;18.57;;;14.57;;
16792;SDS011;8513;42.662;23.350;2023-03-04T00:55:38;15.83;;;14.33;;
16792;SDS011;8513;42.662;23.350;2023-03-04T00:58:03;16.83;;;15.17;;
16792;SDS011;8513;42.662;23.350;2023-03-04T01:00:29;16.53;;;14.83;;
16792;SDS011;8513;42.662;23.350;2023-03-04T01:02:54;16.47;;;14.87;;
16792;SDS011;8513;42.662;23.350;2023-03-04T01:05:20;16.40;;;14.70;;
16792;SDS011;8513;42.662;23.350;2023-03-04T01:07:45;15.80;;;14.23;;
16792;SDS011;8513;42.662;23.350;2023-03-04T01:10:12;15.50;;;14.00;;
16792;SDS011;8513;42.662;23.350;2023-03-04T01:12:39;15.83;;;14.23;;
16792;SDS011;8513;42.662;23.350;2023-03-04T01:15:05;16.67;;;14.97;;
16792;SDS011;8513;42.662;23.350;2023-03-04T01:17:32;16.10;;;14.60;;
16792;SDS011;8513;42.662;23.350;2023-03-04T01:19:58;16.13;;;14.60;;
16792;SDS011;8513;42.662;23.350;2023-03-04T01:22:23;16.10;;;14.07;;
16792;SDS011;8513;42.662;23.350;2023-03-04T01:24:49;16.57;;;14.87;;
16792;SDS011;8513;42.662;23.350;2023-03-04T01:27:15;16.23;;;14.70;;
16792;SDS011;8513;42.662;23.350;2023-03-04T01:29:40;16.43;;;14.73;;
16792;SDS011;8513;42.662;23.350;2023-03-04T01:32:06;16.43;;;14.83;;
16792;SDS011;8513;42.662;23.350;2023-03-04T01:34:31;16.37;;;14.63;;
16792;SDS011;8513;42.662;23.350;2023-03-04T01:36:57;16.23;;;14.57;;
16792;SDS011;8513;42.662;23.350;2023-03-04T01:39:22;15.53;;;13.93;;
16792;SDS011;8513;42.662;23.350;2023-03-04T01:41:47;15.33;;;13.83;;
16792;SDS011;8513;42.662;23.350;2023-03-04T01:44:13;15.40;;;13.80;;
16792;SDS011;8513;42.662;23.350;2023-03-04T01:46:40;15.27;;;13.70;;
16792;SDS011;8513;42.662;23.350;2023-03-04T01:49:11;14.37;;;13.00;;
16792;SDS011;8513;42.662;23.350;2023-03-04T01:51:38;13.80;;;12.50;;
16792;SDS011;8513;42.662;23.350;2023-03-04T01:54:05;14.77;;;13.27;;
16792;SDS011;8513;42.662;23.350;2023-03-04T01:56:35;14.57;;;13.17;;
16792;SDS011;8513;42.662;23.350;2023-03-04T02:01:37;15.37;;;13.87;;
16792;SDS011;8513;42.662;23.350;2023-03-04T02:04:04;15.37;;;13.90;;
16792;SDS011;8513;42.662;23.350;2023-03-04T02:06:31;16.27;;;14.57;;
16792;SDS011;8513;42.662;23.350;2023-03-04T02:08:57;15.13;;;13.63;;
16792;SDS011;8513;42.662;23.350;2023-03-04T02:11:23;16.20;;;14.60;;
16792;SDS011;8513;42.662;23.350;2023-03-04T02:13:49;16.20;;;14.60;;
16792;SDS011;8513;42.662;23.350;2023-03-04T02:16:15;15.60;;;14.00;;
16792;SDS011;8513;42.662;23.350;2023-03-04T02:18:40;16.00;;;14.40;;
16792;SDS011;8513;42.662;23.350;2023-03-04T02:21:14;15.50;;;13.97;;
16792;SDS011;8513;42.662;23.350;2023-03-04T02:26:32;15.63;;;13.97;;
16792;SDS011;8513;42.662;23.350;2023-03-04T02:28:59;15.40;;;13.80;;
16792;SDS011;8513;42.662;23.350;2023-03-04T02:31:32;16.10;;;14.40;;
16792;SDS011;8513;42.662;23.350;2023-03-04T02:34:01;15.50;;;14.00;;
16792;SDS011;8513;42.662;23.350;2023-03-04T02:36:31;14.87;;;13.37;;
16792;SDS011;8513;42.662;23.350;2023-03-04T02:39:33;16.17;;;14.50;;
16792;SDS011;8513;42.662;23.350;2023-03-04T02:42:03;16.20;;;14.50;;
16792;SDS011;8513;42.662;23.350;2023-03-04T02:44:30;16.63;;;14.93;;
16792;SDS011;8513;42.662;23.350;2023-03-04T02:47:00;15.90;;;14.07;;
16792;SDS011;8513;42.662;23.350;2023-03-04T02:49:27;15.97;;;14.37;;
16792;SDS011;8513;42.662;23.350;2023-03-04T02:52:02;16.57;;;14.97;;
16792;SDS011;8513;42.662;23.350;2023-03-04T02:54:29;15.40;;;13.87;;
16792;SDS011;8513;42.662;23.350;2023-03-04T02:56:58;15.73;;;14.13;;
16792;SDS011;8513;42.662;23.350;2023-03-04T02:59:25;16.13;;;14.60;;
16792;SDS011;8513;42.662;23.350;2023-03-04T03:01:51;16.77;;;15.17;;
16792;SDS011;8513;42.662;23.350;2023-03-04T03:04:17;16.83;;;14.77;;
16792;SDS011;8513;42.662;23.350;2023-03-04T03:06:44;16.23;;;14.63;;
16792;SDS011;8513;42.662;23.350;2023-03-04T03:09:09;16.27;;;14.67;;
16792;SDS011;8513;42.662;23.350;2023-03-04T03:11:35;16.00;;;14.30;;
16792;SDS011;8513;42.662;23.350;2023-03-04T03:14:00;16.10;;;14.50;;
16792;SDS011;8513;42.662;23.350;2023-03-04T03:16:26;17.43;;;15.73;;
16792;SDS011;8513;42.662;23.350;2023-03-04T03:18:51;16.77;;;15.17;;
16792;SDS011;8513;42.662;23.350;2023-03-04T03:21:17;16.43;;;14.83;;
16792;SDS011;8513;42.662;23.350;2023-03-04T03:23:42;16.73;;;15.03;;
16792;SDS011;8513;42.662;23.350;2023-03-04T03:26:08;16.50;;;14.90;;
16792;SDS011;8513;42.662;23.350;2023-03-04T03:28:34;16.33;;;14.63;;
16792;SDS011;8513;42.662;23.350;2023-03-04T03:30:59;15.83;;;14.20;;
16792;SDS011;8513;42.662;23.350;2023-03-04T03:33:25;17.47;;;15.57;;
16792;SDS011;8513;42.662;23.350;2023-03-04T03:35:50;16.50;;;14.77;;
16792;SDS011;8513;42.662;23.350;2023-03-04T03:38:16;17.03;;;15.33;;
16792;SDS011;8513;42.662;23.350;2023-03-04T03:40:41;16.90;;;15.20;;
16792;SDS011;8513;42.662;23.350;2023-03-04T03:43:07;16.67;;;15.07;;
16792;SDS011;8513;42.662;23.350;2023-03-04T03:45:32;16.73;;;15.03;;
16792;SDS011;8513;42.662;23.350;2023-03-04T03:47:57;18.40;;;16.53;;
16792;SDS011;8513;42.662;23.350;2023-03-04T03:50:23;17.43;;;15.40;;
16792;SDS011;8513;42.662;23.350;2023-03-04T03:52:48;16.53;;;14.73;;
16792;SDS011;8513;42.662;23.350;2023-03-04T03:55:14;18.73;;;15.77;;
16792;SDS011;8513;42.662;23.350;2023-03-04T03:57:39;17.13;;;15.37;;
16792;SDS011;8513;42.662;23.350;2023-03-04T04:00:05;17.07;;;15.43;;
16792;SDS011;8513;42.662;23.350;2023-03-04T04:02:32;17.73;;;15.93;;
16792;SDS011;8513;42.662;23.350;2023-03-04T04:04:58;18.00;;;16.10;;
16792;SDS011;8513;42.662;23.350;2023-03-04T04:07:23;17.10;;;15.40;;
16792;SDS011;8513;42.662;23.350;2023-03-04T04:09:48;17.13;;;15.43;;
16792;SDS011;8513;42.662;23.350;2023-03-04T04:12:14;18.60;;;15.63;;
16792;SDS011;8513;42.662;23.350;2023-03-04T04:14:41;16.93;;;15.23;;
16792;SDS011;8513;42.662;23.350;2023-03-04T04:17:07;17.30;;;15.50;;
16792;SDS011;8513;42.662;23.350;2023-03-04T04:19:33;18.30;;;15.90;;
16792;SDS011;8513;42.662;23.350;2023-03-04T04:21:58;17.73;;;15.67;;
16792;SDS011;8513;42.662;23.350;2023-03-04T04:24:24;17.23;;;15.47;;
16792;SDS011;8513;42.662;23.350;2023-03-04T04:26:49;17.73;;;15.93;;
16792;SDS011;8513;42.662;23.350;2023-03-04T04:29:15;18.03;;;15.43;;
16792;SDS011;8513;42.662;23.350;2023-03-04T04:31:40;18.63;;;16.73;;
16792;SDS011;8513;42.662;23.350;2023-03-04T04:34:06;16.87;;;15.17;;
16792;SDS011;8513;42.662;23.350;2023-03-04T04:36:31;21.20;;;16.50;;
16792;SDS011;8513;42.662;23.350;2023-03-04T04:38:57;19.10;;;17.03;;
16792;SDS011;8513;42.662;23.350;2023-03-04T04:41:27;17.73;;;15.90;;
16792;SDS011;8513;42.662;23.350;2023-03-04T04:43:56;18.10;;;16.20;;
16792;SDS011;8513;42.662;23.350;2023-03-04T04:46:21;20.57;;;16.20;;
16792;SDS011;8513;42.662;23.350;2023-03-04T04:48:47;19.27;;;16.77;;
16792;SDS011;8513;42.662;23.350;2023-03-04T04:51:13;18.43;;;16.60;;
16792;SDS011;8513;42.662;23.350;2023-03-04T04:53:38;19.80;;;17.70;;
16792;SDS011;8513;42.662;23.350;2023-03-04T04:56:11;20.60;;;18.37;;
16792;SDS011;8513;42.662;23.350;2023-03-04T04:58:38;21.03;;;18.23;;
16792;SDS011;8513;42.662;23.350;2023-03-04T05:01:04;20.03;;;17.77;;
16792;SDS011;8513;42.662;23.350;2023-03-04T05:03:30;21.27;;;18.27;;
16792;SDS011;8513;42.662;23.350;2023-03-04T05:05:56;22.43;;;18.90;;
16792;SDS011;8513;42.662;23.350;2023-03-04T05:08:22;20.07;;;17.93;;
16792;SDS011;8513;42.662;23.350;2023-03-04T05:10:47;20.03;;;17.93;;
16792;SDS011;8513;42.662;23.350;2023-03-04T05:13:12;19.83;;;16.97;;
16792;SDS011;8513;42.662;23.350;2023-03-04T05:15:38;19.47;;;16.47;;
16792;SDS011;8513;42.662;23.350;2023-03-04T05:18:03;19.57;;;17.50;;
16792;SDS011;8513;42.662;23.350;2023-03-04T05:20:29;19.47;;;16.73;;
16792;SDS011;8513;42.662;23.350;2023-03-04T05:22:54;19.90;;;16.90;;
16792;SDS011;8513;42.662;23.350;2023-03-04T05:25:20;20.67;;;16.70;;
16792;SDS011;8513;42.662;23.350;2023-03-04T05:27:45;20.53;;;17.07;;
16792;SDS011;8513;42.662;23.350;2023-03-04T05:30:11;17.80;;;16.00;;
16792;SDS011;8513;42.662;23.350;2023-03-04T05:32:36;20.07;;;18.07;;
16792;SDS011;8513;42.662;23.350;2023-03-04T05:35:02;19.77;;;17.73;;
16792;SDS011;8513;42.662;23.350;2023-03-04T05:37:28;19.83;;;17.70;;
16792;SDS011;8513;42.662;23.350;2023-03-04T05:39:53;21.17;;;18.93;;
16792;SDS011;8513;42.662;23.350;2023-03-04T05:42:18;19.60;;;17.33;;
16792;SDS011;8513;42.662;23.350;2023-03-04T05:44:44;20.03;;;17.90;;
16792;SDS011;8513;42.662;23.350;2023-03-04T05:47:09;19.60;;;17.60;;
16792;SDS011;8513;42.662;23.350;2023-03-04T05:49:35;20.00;;;17.90;;
16792;SDS011;8513;42.662;23.350;2023-03-04T05:52:00;19.80;;;16.63;;
16792;SDS011;8513;42.662;23.350;2023-03-04T05:54:25;19.87;;;17.83;;
16792;SDS011;8513;42.662;23.350;2023-03-04T05:56:51;20.77;;;17.87;;
16792;SDS011;8513;42.662;23.350;2023-03-04T05:59:17;20.80;;;17.20;;
16792;SDS011;8513;42.662;23.350;2023-03-04T06:01:44;19.90;;;17.77;;
16792;SDS011;8513;42.662;23.350;2023-03-04T06:04:11;19.40;;;17.03;;
16792;SDS011;8513;42.662;23.350;2023-03-04T06:06:36;18.93;;;16.37;;
16792;SDS011;8513;42.662;23.350;2023-03-04T06:09:02;19.40;;;17.43;;
16792;SDS011;8513;42.662;23.350;2023-03-04T06:11:28;18.57;;;16.67;;
16792;SDS011;8513;42.662;23.350;2023-03-04T06:13:53;19.37;;;17.37;;
16792;SDS011;8513;42.662;23.350;2023-03-04T06:16:18;19.03;;;17.03;;
16792;SDS011;8513;42.662;23.350;2023-03-04T06:18:44;18.73;;;16.83;;
16792;SDS011;8513;42.662;23.350;2023-03-04T06:21:09;19.30;;;16.70;;
16792;SDS011;8513;42.662;23.350;2023-03-04T06:23:35;20.10;;;17.80;;
16792;SDS011;8513;42.662;23.350;2023-03-04T06:26:01;20.27;;;16.90;;
16792;SDS011;8513;42.662;23.350;2023-03-04T06:28:27;17.63;;;15.90;;
16792;SDS011;8513;42.662;23.350;2023-03-04T06:30:54;18.50;;;16.50;;
16792;SDS011;8513;42.662;23.350;2023-03-04T06:33:20;20.07;;;16.53;;
16792;SDS011;8513;42.662;23.350;2023-03-04T06:35:47;17.17;;;15.37;;
16792;SDS011;8513;42.662;23.350;2023-03-04T06:38:12;18.87;;;16.87;;
16792;SDS011;8513;42.662;23.350;2023-03-04T06:40:38;20.70;;;17.53;;
16792;SDS011;8513;42.662;23.350;2023-03-04T06:43:04;20.63;;;17.23;;
16792;SDS011;8513;42.662;23.350;2023-03-04T06:45:29;20.83;;;17.63;;
16792;SDS011;8513;42.662;23.350;2023-03-04T06:47:54;19.40;;;17.23;;
16792;SDS011;8513;42.662;23.350;2023-03-04T06:50:20;19.30;;;17.13;;
16792;SDS011;8513;42.662;23.350;2023-03-04T06:52:45;19.23;;;17.23;;
16792;SDS011;8513;42.662;23.350;2023-03-04T06:55:12;18.80;;;17.00;;
16792;SDS011;8513;42.662;23.350;2023-03-04T06:57:38;20.03;;;17.00;;
16792;SDS011;8513;42.662;23.350;2023-03-04T07:00:04;19.10;;;16.83;;
16792;SDS011;8513;42.662;23.350;2023-03-04T07:02:30;22.43;;;18.43;;
16792;SDS011;8513;42.662;23.350;2023-03-04T07:04:56;22.60;;;19.40;;
16792;SDS011;8513;42.662;23.350;2023-03-04T07:07:21;22.70;;;19.30;;
16792;SDS011;8513;42.662;23.350;2023-03-04T07:09:47;21.13;;;18.87;;
16792;SDS011;8513;42.662;23.350;2023-03-04T07:12:12;22.23;;;18.17;;
16792;SDS011;8513;42.662;23.350;2023-03-04T07:14:38;20.10;;;17.30;;
16792;SDS011;8513;42.662;23.350;2023-03-04T07:17:03;19.10;;;17.10;;
16792;SDS011;8513;42.662;23.350;2023-03-04T07:19:29;21.17;;;18.47;;
16792;SDS011;8513;42.662;23.350;2023-03-04T07:21:56;22.93;;;19.33;;
16792;SDS011;8513;42.662;23.350;2023-03-04T07:24:22;16.13;;;14.30;;
16792;SDS011;8513;42.662;23.350;2023-03-04T07:26:47;15.10;;;13.50;;
16792;SDS011;8513;42.662;23.350;2023-03-04T07:29:12;20.00;;;14.10;;
16792;SDS011;8513;42.662;23.350;2023-03-04T07:31:38;16.97;;;12.60;;
16792;SDS011;8513;42.662;23.350;2023-03-04T07:34:05;15.17;;;12.67;;
16792;SDS011;8513;42.662;23.350;2023-03-04T07:36:32;15.90;;;13.40;;
16792;SDS011;8513;42.662;23.350;2023-03-04T07:38:59;15.03;;;13.30;;
16792;SDS011;8513;42.662;23.350;2023-03-04T07:41:26;15.20;;;12.83;;
16792;SDS011;8513;42.662;23.350;2023-03-04T07:43:52;19.00;;;14.63;;
16792;SDS011;8513;42.662;23.350;2023-03-04T07:46:19;20.50;;;14.77;;
16792;SDS011;8513;42.662;23.350;2023-03-04T07:48:45;16.33;;;14.60;;
16792;SDS011;8513;42.662;23.350;2023-03-04T07:51:12;17.20;;;13.53;;
16792;SDS011;8513;42.662;23.350;2023-03-04T07:53:39;16.70;;;13.37;;
16792;SDS011;8513;42.662;23.350;2023-03-04T07:56:06;15.90;;;13.83;;
16792;SDS011;8513;42.662;23.350;2023-03-04T07:58:32;19.87;;;14.00;;
16792;SDS011;8513;42.662;23.350;2023-03-04T08:00:58;15.67;;;13.03;;
16792;SDS011;8513;42.662;23.350;2023-03-04T08:03:24;21.87;;;13.37;;
16792;SDS011;8513;42.662;23.350;2023-03-04T08:05:52;16.33;;;12.77;;
16792;SDS011;8513;42.662;23.350;2023-03-04T08:08:18;16.40;;;13.10;;
16792;SDS011;8513;42.662;23.350;2023-03-04T08:10:43;16.60;;;13.03;;
16792;SDS011;8513;42.662;23.350;2023-03-04T08:13:09;18.73;;;12.73;;
16792;SDS011;8513;42.662;23.350;2023-03-04T08:15:38;16.90;;;13.13;;
16792;SDS011;8513;42.662;23.350;2023-03-04T08:18:04;14.97;;;12.53;;
16792;SDS011;8513;42.662;23.350;2023-03-04T08:20:30;17.57;;;13.70;;
16792;SDS011;8513;42.662;23.350;2023-03-04T08:22:55;17.37;;;13.70;;
16792;SDS011;8513;42.662;23.350;2023-03-04T08:25:20;16.50;;;14.13;;
16792;SDS011;8513;42.662;23.350;2023-03-04T08:27:46;16.97;;;13.47;;
16792;SDS011;8513;42.662;23.350;2023-03-04T08:30:11;24.57;;;15.60;;
16792;SDS011;8513;42.662;23.350;2023-03-04T08:32:37;17.70;;;14.63;;
16792;SDS011;8513;42.662;23.350;2023-03-04T08:35:02;17.33;;;14.30;;
16792;SDS011;8513;42.662;23.350;2023-03-04T08:37:28;17.30;;;14.70;;
16792;SDS011;8513;42.662;23.350;2023-03-04T08:39:54;21.47;;;13.93;;
16792;SDS011;8513;42.662;23.350;2023-03-04T08:42:19;17.97;;;14.80;;
16792;SDS011;8513;42.662;23.350;2023-03-04T08:44:45;17.40;;;14.27;;
16792;SDS011;8513;42.662;23.350;2023-03-04T08:47:10;19.97;;;16.27;;
16792;SDS011;8513;42.662;23.350;2023-03-04T08:49:36;18.83;;;15.07;;
16792;SDS011;8513;42.662;23.350;2023-03-04T08:52:01;19.90;;;16.57;;
16792;SDS011;8513;42.662;23.350;2023-03-04T08:54:27;21.33;;;17.43;;
16792;SDS011;8513;42.662;23.350;2023-03-04T08:56:52;19.97;;;16.37;;
16792;SDS011;8513;42.662;23.350;2023-03-04T08:59:18;21.03;;;17.87;;
16792;SDS011;8513;42.662;23.350;2023-03-04T09:01:43;25.40;;;18.20;;
16792;SDS011;8513;42.662;23.350;2023-03-04T09:04:08;22.67;;;17.93;;
16792;SDS011;8513;42.662;23.350;2023-03-04T09:06:34;19.27;;;17.27;;
16792;SDS011;8513;42.662;23.350;2023-03-04T09:08:59;20.60;;;18.10;;
16792;SDS011;8513;42.662;23.350;2023-03-04T09:11:25;19.70;;;17.17;;
16792;SDS011;8513;42.662;23.350;2023-03-04T09:13:50;23.87;;;17.37;;
16792;SDS011;8513;42.662;23.350;2023-03-04T09:16:16;18.77;;;16.83;;
16792;SDS011;8513;42.662;23.350;2023-03-04T09:18:41;19.77;;;17.33;;
16792;SDS011;8513;42.662;23.350;2023-03-04T09:21:07;19.73;;;17.17;;
16792;SDS011;8513;42.662;23.350;2023-03-04T09:23:33;18.63;;;15.97;;
16792;SDS011;8513;42.662;23.350;2023-03-04T09:26:00;20.30;;;15.97;;
16792;SDS011;8513;42.662;23.350;2023-03-04T09:28:25;17.87;;;15.60;;
16792;SDS011;8513;42.662;23.350;2023-03-04T09:30:51;18.33;;;15.50;;
16792;SDS011;8513;42.662;23.350;2023-03-04T09:33:16;20.63;;;17.17;;
16792;SDS011;8513;42.662;23.350;2023-03-04T09:35:42;19.53;;;16.20;;
16792;SDS011;8513;42.662;23.350;2023-03-04T09:38:08;17.47;;;15.60;;
16792;SDS011;8513;42.662;23.350;2023-03-04T09:43:02;18.73;;;16.27;;
16792;SDS011;8513;42.662;23.350;2023-03-04T09:46:03;20.00;;;16.30;;
16792;SDS011;8513;42.662;23.350;2023-03-04T09:48:23;18.50;;;14.87;;
16792;SDS011;8513;42.662;23.350;2023-03-04T09:56:00;16.50;;;13.93;;
16792;SDS011;8513;42.662;23.350;2023-03-04T10:01:22;18.77;;;14.20;;
16792;SDS011;8513;42.662;23.350;2023-03-04T10:04:09;18.47;;;14.13;;
16792;SDS011;8513;42.662;23.350;2023-03-04T10:06:41;15.17;;;13.23;;
16792;SDS011;8513;42.662;23.350;2023-03-04T10:09:14;16.07;;;14.37;;
16792;SDS011;8513;42.662;23.350;2023-03-04T10:11:46;15.33;;;13.73;;
16792;SDS011;8513;42.662;23.350;2023-03-04T10:16:48;15.97;;;13.73;;
16792;SDS011;8513;42.662;23.350;2023-03-04T10:19:37;18.10;;;15.33;;
16792;SDS011;8513;42.662;23.350;2023-03-04T10:25:06;17.33;;;15.43;;
16792;SDS011;8513;42.662;23.350;2023-03-04T10:27:40;16.63;;;14.90;;
16792;SDS011;8513;42.662;23.350;2023-03-04T10:30:22;18.97;;;14.77;;
16792;SDS011;8513;42.662;23.350;2023-03-04T10:33:12;18.67;;;14.73;;
16792;SDS011;8513;42.662;23.350;2023-03-04T10:35:39;18.33;;;14.60;;
16792;SDS011;8513;42.662;23.350;2023-03-04T10:38:11;17.07;;;13.67;;
16792;SDS011;8513;42.662;23.350;2023-03-04T10:40:38;17.57;;;14.70;;
16792;SDS011;8513;42.662;23.350;2023-03-04T10:43:04;16.43;;;14.23;;
16792;SDS011;8513;42.662;23.350;2023-03-04T10:45:32;15.53;;;13.60;;
16792;SDS011;8513;42.662;23.350;2023-03-04T10:48:03;21.03;;;15.10;;
16792;SDS011;8513;42.662;23.350;2023-03-04T10:50:29;17.43;;;14.80;;
16792;SDS011;8513;42.662;23.350;2023-03-04T10:52:56;19.30;;;15.37;;
16792;SDS011;8513;42.662;23.350;2023-03-04T10:55:23;20.13;;;15.67;;
16792;SDS011;8513;42.662;23.350;2023-03-04T11:00:43;20.67;;;15.43;;
16792;SDS011;8513;42.662;23.350;2023-03-04T11:03:24;18.97;;;15.03;;
16792;SDS011;8513;42.662;23.350;2023-03-04T11:06:10;19.17;;;14.90;;
16792;SDS011;8513;42.662;23.350;2023-03-04T11:08:37;17.67;;;14.70;;
16792;SDS011;8513;42.662;23.350;2023-03-04T11:11:12;19.47;;;14.13;;
16792;SDS011;8513;42.662;23.350;2023-03-04T11:13:49;17.63;;;15.00;;
16792;SDS011;8513;42.662;23.350;2023-03-04T11:16:27;22.30;;;15.40;;
16792;SDS011;8513;42.662;23.350;2023-03-04T11:18:58;21.53;;;15.97;;
16792;SDS011;8513;42.662;23.350;2023-03-04T11:21:29;18.00;;;15.33;;
16792;SDS011;8513;42.662;23.350;2023-03-04T11:24:02;22.20;;;15.97;;
16792;SDS011;8513;42.662;23.350;2023-03-04T11:26:40;19.43;;;14.57;;
16792;SDS011;8513;42.662;23.350;2023-03-04T11:29:17;18.70;;;15.70;;
16792;SDS011;8513;42.662;23.350;2023-03-04T11:34:41;19.70;;;15.63;;
16792;SDS011;8513;42.662;23.350;2023-03-04T11:37:20;20.30;;;14.37;;
16792;SDS011;8513;42.662;23.350;2023-03-04T11:39:51;17.80;;;14.53;;
16792;SDS011;8513;42.662;23.350;2023-03-04T11:42:27;20.87;;;14.70;;
16792;SDS011;8513;42.662;23.350;2023-03-04T11:44:59;20.63;;;15.50;;
16792;SDS011;8513;42.662;23.350;2023-03-04T11:47:35;19.13;;;15.43;;
16792;SDS011;8513;42.662;23.350;2023-03-04T11:55:40;18.77;;;16.30;;
16792;SDS011;8513;42.662;23.350;2023-03-04T12:05:55;18.60;;;14.50;;
16792;SDS011;8513;42.662;23.350;2023-03-04T12:13:57;19.03;;;15.40;;
16792;SDS011;8513;42.662;23.350;2023-03-04T12:22:26;18.07;;;14.60;;
16792;SDS011;8513;42.662;23.350;2023-03-04T12:27:58;17.97;;;16.07;;
16792;SDS011;8513;42.662;23.350;2023-03-04T12:30:48;17.87;;;15.60;;
16792;SDS011;8513;42.662;23.350;2023-03-04T12:33:36;18.57;;;15.83;;
16792;SDS011;8513;42.662;23.350;2023-03-04T12:37:02;18.83;;;15.60;;
16792;SDS011;8513;42.662;23.350;2023-03-04T12:45:07;20.00;;;15.70;;
16792;SDS011;8513;42.662;23.350;2023-03-04T12:48:08;18.83;;;15.33;;
16792;SDS011;8513;42.662;23.350;2023-03-04T12:56:03;20.97;;;16.27;;
16792;SDS011;8513;42.662;23.350;2023-03-04T12:58:31;23.87;;;20.23;;
16792;SDS011;8513;42.662;23.350;2023-03-04T13:01:17;22.20;;;16.30;;
16792;SDS011;8513;42.662;23.350;2023-03-04T13:04:00;21.20;;;17.03;;
16792;SDS011;8513;42.662;23.350;2023-03-04T13:16:45;21.43;;;16.93;;
16792;SDS011;8513;42.662;23.350;2023-03-04T13:24:55;24.40;;;17.67;;
16792;SDS011;8513;42.662;23.350;2023-03-04T13:51:22;20.67;;;17.30;;
16792;SDS011;8513;42.662;23.350;2023-03-04T14:06:54;22.00;;;17.07;;
16792;SDS011;8513;42.662;23.350;2023-03-04T14:09:29;22.27;;;16.73;;
16792;SDS011;8513;42.662;23.350;2023-03-04T14:12:00;21.10;;;16.30;;
16792;SDS011;8513;42.662;23.350;2023-03-04T14:14:39;20.53;;;17.43;;
16792;SDS011;8513;42.662;23.350;2023-03-04T14:17:16;21.10;;;17.03;;
16792;SDS011;8513;42.662;23.350;2023-03-04T14:19:45;20.43;;;17.60;;
16792;SDS011;8513;42.662;23.350;2023-03-04T14:22:25;24.93;;;17.30;;
16792;SDS011;8513;42.662;23.350;2023-03-04T14:24:59;23.70;;;16.40;;
16792;SDS011;8513;42.662;23.350;2023-03-04T14:27:44;21.13;;;17.80;;
16792;SDS011;8513;42.662;23.350;2023-03-04T14:30:21;21.30;;;17.73;;
16792;SDS011;8513;42.662;23.350;2023-03-04T14:32:49;19.47;;;16.10;;
16792;SDS011;8513;42.662;23.350;2023-03-04T14:35:18;20.27;;;17.17;;
16792;SDS011;8513;42.662;23.350;2023-03-04T14:37:57;20.57;;;16.73;;
16792;SDS011;8513;42.662;23.350;2023-03-04T14:40:41;20.43;;;16.60;;
16792;SDS011;8513;42.662;23.350;2023-03-04T14:43:21;22.33;;;16.87;;
16792;SDS011;8513;42.662;23.350;2023-03-04T14:45:48;23.10;;;16.23;;
16792;SDS011;8513;42.662;23.350;2023-03-04T14:48:24;16.80;;;14.77;;
16792;SDS011;8513;42.662;23.350;2023-03-04T14:50:56;20.97;;;16.10;;
16792;SDS011;8513;42.662;23.350;2023-03-04T14:53:24;20.27;;;15.83;;
16792;SDS011;8513;42.662;23.350;2023-03-04T14:58:25;19.93;;;16.17;;
16792;SDS011;8513;42.662;23.350;2023-03-04T15:01:17;19.67;;;16.20;;
16792;SDS011;8513;42.662;23.350;2023-03-04T15:03:54;19.90;;;16.63;;
16792;SDS011;8513;42.662;23.350;2023-03-04T15:06:36;19.97;;;16.17;;
16792;SDS011;8513;42.662;23.350;2023-03-04T15:09:16;18.30;;;15.33;;
16792;SDS011;8513;42.662;23.350;2023-03-04T15:14:39;19.87;;;15.40;;
16792;SDS011;8513;42.662;23.350;2023-03-04T15:17:27;21.63;;;15.90;;
16792;SDS011;8513;42.662;23.350;2023-03-04T15:22:34;19.43;;;16.23;;
16792;SDS011;8513;42.662;23.350;2023-03-04T15:25:20;22.47;;;16.47;;
16792;SDS011;8513;42.662;23.350;2023-03-04T15:27:47;19.93;;;16.27;;
16792;SDS011;8513;42.662;23.350;2023-03-04T15:30:14;23.67;;;15.97;;
16792;SDS011;8513;42.662;23.350;2023-03-04T15:32:42;21.33;;;16.43;;
16792;SDS011;8513;42.662;23.350;2023-03-04T15:35:11;18.70;;;16.70;;
16792;SDS011;8513;42.662;23.350;2023-03-04T15:37:37;20.07;;;17.87;;
16792;SDS011;8513;42.662;23.350;2023-03-04T15:40:03;19.17;;;16.73;;
16792;SDS011;8513;42.662;23.350;2023-03-04T15:42:37;21.87;;;16.60;;
16792;SDS011;8513;42.662;23.350;2023-03-04T15:45:09;21.70;;;17.30;;
16792;SDS011;8513;42.662;23.350;2023-03-04T15:48:00;19.60;;;16.50;;
16792;SDS011;8513;42.662;23.350;2023-03-04T15:50:28;22.07;;;17.30;;
16792;SDS011;8513;42.662;23.350;2023-03-04T15:52:58;19.07;;;16.67;;
16792;SDS011;8513;42.662;23.350;2023-03-04T15:55:26;19.90;;;16.93;;
16792;SDS011;8513;42.662;23.350;2023-03-04T15:57:53;20.20;;;16.23;;
16792;SDS011;8513;42.662;23.350;2023-03-04T16:00:21;22.03;;;16.83;;
16792;SDS011;8513;42.662;23.350;2023-03-04T16:02:46;18.67;;;16.63;;
16792;SDS011;8513;42.662;23.350;2023-03-04T16:05:12;24.27;;;16.50;;
16792;SDS011;8513;42.662;23.350;2023-03-04T16:07:39;20.50;;;18.30;;
16792;SDS011;8513;42.662;23.350;2023-03-04T16:10:07;21.63;;;17.73;;
16792;SDS011;8513;42.662;23.350;2023-03-04T16:12:40;24.67;;;18.73;;
16792;SDS011;8513;42.662;23.350;2023-03-04T16:15:13;23.37;;;16.77;;
16792;SDS011;8513;42.662;23.350;2023-03-04T16:17:40;20.80;;;17.43;;
16792;SDS011;8513;42.662;23.350;2023-03-04T16:20:09;23.67;;;17.20;;
16792;SDS011;8513;42.662;23.350;2023-03-04T16:22:36;22.90;;;17.73;;
16792;SDS011;8513;42.662;23.350;2023-03-04T16:25:02;22.33;;;18.57;;
16792;SDS011;8513;42.662;23.350;2023-03-04T16:27:28;20.87;;;18.03;;
16792;SDS011;8513;42.662;23.350;2023-03-04T16:29:54;23.27;;;18.40;;
16792;SDS011;8513;42.662;23.350;2023-03-04T16:32:19;25.93;;;17.70;;
16792;SDS011;8513;42.662;23.350;2023-03-04T16:34:45;23.00;;;18.57;;
16792;SDS011;8513;42.662;23.350;2023-03-04T16:37:14;22.30;;;18.67;;